Boynton Beach, FL (33435)

6:43 PM EDT on September 03, 2015 (GMT -0400)
APRSWXNET | | Change Station
CLOSE
Current Station
Personal Weather Station
Location: Boynton Beach, FL
Elevation: 32 ft
Nearby Weather Stations

Elev 32 ft 26.53 °N, 80.07 °W | Updated 28 minutes ago

Mostly Cloudy
Mostly Cloudy
87 °F
Feels Like 99 °F
N
0
Wind Variable Wind from SE
Gusts 6.0 mph

Today
High -- | Low -- °F
--% Chance of Precip.
Yesterday
High -- | Low -- °F
Precip. -- in
7:00 AM 7:38 PM
Waning Gibbous, 66% visible
Pressure 29.92 in
Visibility 10.0 miles
Clouds Scattered Clouds 4000 ft
Mostly Cloudy 7000 ft
Mostly Cloudy 25000 ft
Heat Index 99 °F
Dew Point 77 °F
Humidity 73%
Rainfall in
Snow Depth Not available.
UV 1 out of 12
Pollen 4.70 out of 12
Air Quality Not available.
Flu Activity Not available.
SPECI KPBI 032208Z 00000KT 10SM -RA SCT040CB BKN070 BKN250 28/23 A2992 RMK AO2 TSE07 OCNL LTGIC DSNT SW CB N MOV S CB DSNT SW P0000 T02780233
Pressure 29.92 in
Visibility 10.0 miles
Clouds Scattered Clouds 4000 ft
Mostly Cloudy 7000 ft
Mostly Cloudy 25000 ft
Heat Index 99 °F
Dew Point 77 °F
Humidity 73%
Rainfall in
Snow Depth Not available.
UV 1 out of 12
Pollen 4.70 out of 12
Air Quality Not available.
Flu Activity Not available.
SPECI KPBI 032208Z 00000KT 10SM -RA SCT040CB BKN070 BKN250 28/23 A2992 RMK AO2 TSE07 OCNL LTGIC DSNT SW CB N MOV S CB DSNT SW P0000 T02780233
Nowcast | as of 4:06 PM EDT on September 3, 2015

Scattered showers and lightning storms will continue to develop along the Gulf...East Coast...and Lake Okeechobee breezes as well as other outflow boundaries through the early evening hours. The highest coverage of activity is expected across Collier...Mainland Monroe...Hendry and Glades County...however isolated storms are possible along the western side of the East Coast Metro as the sea breeze moves in. Storms will move little this afternoon and torrential rainfall can be expected with most activity. Frequent lightning strikes will accompany stronger storms.

×

10-Day Weather Forecast

×

Almanac

Astronomy

Sep. 03, 2015 Rise Set
Actual Time
Civil Twilight
Nautical Twilight
Astronomical Twilight
Moon
Length of Visible Light
Length of Day
Tomorrow will be .
, % of the Moon is Illuminated

Today's Extremes

State Highs State Lows

Community

WunderPhotos

Upload Photos

1,852,049 photos uploaded!

WunderBlogs® & News

Nearby

Air Quality

  Air Quality AQ Index Pollutant
Not available.

Snow Depth

Station Depth Elevation

Earthquake Activity

City Distance Mag. Time & Date
Minimum magnitude displayed is 2.5.

Coastal Water Temperatures

Place Temperature

Stations

Nearby Weather Stations

Station Location Temp. Windchill Dew Point Humidity Wind Precip. Elev Updated Type